Time;durP1;ratioP1;P1;durP2;ratioP2;P2;SDS_P1;SDS_P2;PMS_P1;PMS_P2;Temp;Humidity;BMP_temperature;BMP_pressure;BME280_temperature;BME280_humidity;BME280_pressure;Samples;Min_cycle;Max_cycle;Signal;HPM_P1;HPM_P2
2023/05/07 00:01:07;;;;;;;7.68;5.78;;;;;;;13.48;55.79;95148.31;5029597;28;20196;-68
2023/05/07 00:03:33;;;;;;;8.40;5.78;;;;;;;13.48;56.13;95145.69;5018662;28;20230;-68
2023/05/07 00:05:58;;;;;;;7.30;6.35;;;;;;;13.49;56.28;95141.22;5019630;28;20215;-68
2023/05/07 00:08:24;;;;;;;11.52;7.18;;;;;;;13.33;56.67;95150.78;5027551;28;20291;-69
2023/05/07 00:10:49;;;;;;;10.90;9.63;;;;;;;12.62;59.29;95149.53;5023631;28;20213;-69
2023/05/07 00:13:15;;;;;;;13.45;10.48;;;;;;;12.87;58.64;95147.75;5024373;28;20186;-68
2023/05/07 00:15:40;;;;;;;13.60;12.18;;;;;;;13.06;58.49;95154.53;5047219;28;20260;-68
2023/05/07 00:18:06;;;;;;;13.15;10.52;;;;;;;13.10;58.34;95150.59;5023450;28;20222;-68
2023/05/07 00:20:31;;;;;;;15.30;12.00;;;;;;;13.13;58.17;95144.97;5037614;28;20259;-68
2023/05/07 00:22:57;;;;;;;13.15;11.50;;;;;;;13.15;58.19;95142.16;5026062;28;20279;-68
2023/05/07 00:25:22;;;;;;;13.27;11.25;;;;;;;13.21;58.04;95136.25;5033870;28;20201;-68
2023/05/07 00:27:48;;;;;;;14.25;11.23;;;;;;;13.19;58.32;95141.69;5031710;28;20228;-68
2023/05/07 00:30:14;;;;;;;13.45;11.13;;;;;;;13.16;58.51;95133.28;5026823;28;20567;-68
2023/05/07 00:32:39;;;;;;;15.40;11.60;;;;;;;13.20;58.20;95135.44;5028566;28;20669;-68
2023/05/07 00:35:06;;;;;;;13.60;11.73;;;;;;;13.22;58.20;95130.78;5021127;28;20237;-67
2023/05/07 00:37:31;;;;;;;12.65;11.07;;;;;;;13.08;58.75;95131.44;5037133;28;20177;-68
2023/05/07 00:39:57;;;;;;;13.13;11.02;;;;;;;13.09;58.49;95138.38;5030329;28;20202;-67
2023/05/07 00:42:22;;;;;;;14.30;11.85;;;;;;;13.12;58.55;95139.84;5030611;28;20217;-68
2023/05/07 00:44:48;;;;;;;12.45;11.23;;;;;;;13.11;58.73;95141.69;5038691;28;20226;-68
2023/05/07 00:47:14;;;;;;;12.80;11.40;;;;;;;13.06;58.65;95138.69;5034710;28;20232;-68
2023/05/07 00:49:43;;;;;;;12.63;11.25;;;;;;;13.12;58.65;95145.13;5022135;28;20182;-67
2023/05/07 00:52:17;;;;;;;12.40;11.13;;;;;;;13.03;58.76;95146.94;5027513;28;20193;-67
2023/05/07 00:54:42;;;;;;;17.27;10.73;;;;;;;13.04;58.57;95148.59;5024158;28;20218;-67
2023/05/07 00:57:11;;;;;;;11.68;10.38;;;;;;;12.88;58.78;95148.56;5023986;28;20285;-68
2023/05/07 00:59:36;;;;;;;12.00;10.55;;;;;;;12.85;59.19;95149.72;5025415;28;20221;-68
2023/05/07 01:02:01;;;;;;;11.38;10.15;;;;;;;12.85;59.12;95148.91;5032358;28;20234;-67
2023/05/07 01:04:27;;;;;;;11.90;10.07;;;;;;;12.79;59.22;95150.38;5034485;28;20214;-67
2023/05/07 01:06:55;;;;;;;10.48;9.48;;;;;;;12.82;58.96;95149.22;5024546;28;20260;-67
2023/05/07 01:09:22;;;;;;;11.98;9.27;;;;;;;12.80;58.80;95144.94;5023331;28;20217;-68
2023/05/07 01:11:49;;;;;;;12.60;8.85;;;;;;;12.75;59.07;95152.53;5034652;28;20226;-67
2023/05/07 01:14:15;;;;;;;9.60;8.50;;;;;;;12.70;58.81;95149.53;5032660;28;20221;-67
2023/05/07 01:16:41;;;;;;;9.18;8.07;;;;;;;12.70;58.79;95149.53;5039559;28;20197;-68
2023/05/07 01:19:08;;;;;;;7.90;6.28;;;;;;;12.64;57.98;95144.88;5036144;28;20191;-68
2023/05/07 01:21:36;;;;;;;6.07;5.47;;;;;;;12.68;57.09;95151.50;5014462;28;20209;-68
2023/05/07 01:24:02;;;;;;;7.10;5.28;;;;;;;12.68;56.78;95148.88;5041659;28;20218;-67
2023/05/07 01:26:28;;;;;;;5.35;4.95;;;;;;;12.66;56.45;95150.84;5024799;28;20233;-67
2023/05/07 01:28:53;;;;;;;6.50;4.63;;;;;;;12.67;56.13;95138.47;5044362;28;20218;-67
2023/05/07 01:31:20;;;;;;;6.20;4.38;;;;;;;12.75;55.80;95139.34;5033124;28;20181;-67
2023/05/07 01:33:48;;;;;;;4.45;4.03;;;;;;;12.75;55.95;95143.75;5028703;28;20226;-67
2023/05/07 01:36:14;;;;;;;6.90;4.45;;;;;;;12.79;55.77;95142.47;5027592;28;20206;-68
2023/05/07 01:38:41;;;;;;;8.23;3.60;;;;;;;12.79;55.51;95132.72;5039240;28;20901;-68
2023/05/07 01:41:07;;;;;;;5.40;4.65;;;;;;;12.79;55.66;95130.09;5029242;28;20241;-67
2023/05/07 01:43:33;;;;;;;4.85;4.45;;;;;;;12.76;55.78;95121.69;5030168;28;20341;-67
2023/05/07 01:45:59;;;;;;;6.68;4.47;;;;;;;12.71;56.08;95123.97;5031102;28;20190;-67
2023/05/07 01:48:25;;;;;;;7.10;4.97;;;;;;;12.62;56.83;95120.50;5028071;28;20445;-68
2023/05/07 01:50:51;;;;;;;6.55;4.55;;;;;;;12.59;56.90;95118.19;5023549;28;20218;-68
2023/05/07 01:53:17;;;;;;;7.73;5.00;;;;;;;12.55;56.86;95111.59;5035809;28;20225;-67
2023/05/07 01:55:42;;;;;;;5.22;4.78;;;;;;;12.49;57.29;95110.41;5026308;28;20217;-68
2023/05/07 01:58:08;;;;;;;7.03;5.03;;;;;;;12.42;57.73;95113.84;5030411;28;20252;-67
2023/05/07 02:00:33;;;;;;;5.30;4.80;;;;;;;12.53;57.50;95113.53;5036251;28;20249;-68
2023/05/07 02:02:59;;;;;;;6.78;6.15;;;;;;;12.55;57.75;95103.66;5007934;28;20268;-67
2023/05/07 02:05:24;;;;;;;6.78;6.18;;;;;;;12.45;58.61;95102.97;5014601;28;20250;-68
2023/05/07 02:07:50;;;;;;;7.28;6.68;;;;;;;12.61;58.54;95107.47;5006805;28;20247;-68
2023/05/07 02:10:15;;;;;;;7.43;6.47;;;;;;;12.63;58.60;95102.88;5010629;28;20266;-68
2023/05/07 02:12:42;;;;;;;7.15;6.55;;;;;;;12.67;58.39;95099.75;5013919;28;20328;-68
2023/05/07 02:15:08;;;;;;;7.68;6.93;;;;;;;12.74;58.11;95092.81;5008752;28;20318;-68
2023/05/07 02:17:33;;;;;;;7.95;7.03;;;;;;;12.84;57.79;95091.84;5014037;28;20214;-68
2023/05/07 02:19:59;;;;;;;7.75;7.00;;;;;;;12.86;57.78;95090.69;5013419;28;20224;-68
2023/05/07 02:22:25;;;;;;;7.65;6.88;;;;;;;12.80;57.85;95083.41;5016081;28;20210;-68
2023/05/07 02:24:51;;;;;;;7.35;6.65;;;;;;;12.80;57.59;95097.47;5009862;28;20186;-68
2023/05/07 02:27:16;;;;;;;7.68;6.32;;;;;;;12.74;58.04;95094.63;5004101;28;20284;-68
2023/05/07 02:29:42;;;;;;;7.13;6.63;;;;;;;12.78;57.81;95094.16;5005001;28;20221;-68
2023/05/07 02:32:07;;;;;;;9.20;7.05;;;;;;;12.79;57.64;95101.06;5012778;28;20222;-67
2023/05/07 02:34:32;;;;;;;7.55;6.82;;;;;;;12.75;57.79;95091.84;5004276;28;20183;-67
2023/05/07 02:36:58;;;;;;;7.55;6.85;;;;;;;12.74;57.99;95100.72;5006370;28;20246;-68
2023/05/07 02:39:23;;;;;;;6.85;6.30;;;;;;;12.64;58.19;95100.03;5010692;28;20238;-67
2023/05/07 02:41:49;;;;;;;9.13;6.95;;;;;;;12.57;58.54;95091.16;5006222;28;20305;-67
2023/05/07 02:44:14;;;;;;;8.85;7.75;;;;;;;12.56;58.48;95089.47;5004793;28;20225;-67
2023/05/07 02:46:40;;;;;;;7.90;7.10;;;;;;;12.60;58.53;95095.28;5004611;28;20210;-67
2023/05/07 02:49:05;;;;;;;7.60;6.90;;;;;;;12.57;58.52;95091.16;5003325;28;20232;-67
2023/05/07 02:51:31;;;;;;;7.38;6.78;;;;;;;12.53;58.20;95090.63;5004280;28;20496;-67
2023/05/07 02:53:57;;;;;;;8.38;6.85;;;;;;;12.48;58.57;95092.09;5009719;28;20250;-67
2023/05/07 02:56:22;;;;;;;8.02;7.25;;;;;;;12.49;58.61;95099.03;5014232;28;20211;-67
2023/05/07 02:58:48;;;;;;;7.88;7.07;;;;;;;12.44;58.70;95096.88;5002333;28;20251;-67
2023/05/07 03:01:13;;;;;;;8.30;7.60;;;;;;;12.52;58.56;95104.81;5008223;28;20181;-67
2023/05/07 03:03:40;;;;;;;8.70;7.15;;;;;;;12.51;58.67;95099.69;5022996;28;20226;-67
2023/05/07 03:06:06;;;;;;;8.25;7.45;;;;;;;12.49;59.01;95109.59;5003368;28;20262;-67
2023/05/07 03:08:32;;;;;;;8.75;7.82;;;;;;;12.50;58.59;95103.31;5009075;28;20262;-67
2023/05/07 03:10:58;;;;;;;8.32;7.63;;;;;;;12.28;59.39;95115.31;5009093;28;20264;-69
2023/05/07 03:13:23;;;;;;;9.07;7.97;;;;;;;12.37;59.39;95119.59;5018632;28;20186;-67
2023/05/07 03:15:49;;;;;;;9.07;8.18;;;;;;;12.37;59.45;95116.97;5011734;28;20238;-68
2023/05/07 03:18:14;;;;;;;8.75;7.95;;;;;;;12.41;59.19;95117.50;5021170;28;20234;-68
2023/05/07 03:20:40;;;;;;;9.82;8.93;;;;;;;12.38;59.57;95125.72;5012634;28;20272;-68
2023/05/07 03:23:05;;;;;;;10.35;9.25;;;;;;;12.33;59.86;95123.56;5007669;28;20231;-68
2023/05/07 03:25:32;;;;;;;10.13;9.32;;;;;;;12.40;59.77;95121.09;5003569;28;20190;-68
2023/05/07 03:27:57;;;;;;;10.80;9.88;;;;;;;12.34;59.95;95128.66;5007239;28;20230;-69
2023/05/07 03:30:23;;;;;;;10.63;9.65;;;;;;;12.38;59.97;95123.09;5007089;28;20226;-68
2023/05/07 03:32:48;;;;;;;11.43;10.25;;;;;;;12.42;59.94;95124.41;4988305;28;20257;-68
2023/05/07 03:35:14;;;;;;;11.30;10.30;;;;;;;12.45;59.90;95132.00;5020630;28;20243;-68
2023/05/07 03:37:40;;;;;;;11.20;10.20;;;;;;;12.45;59.93;95119.63;5002512;28;20214;-68
2023/05/07 03:40:06;;;;;;;11.63;10.50;;;;;;;12.47;59.86;95122.94;5013321;28;20294;-69
2023/05/07 03:42:31;;;;;;;11.13;10.18;;;;;;;12.48;60.01;95124.59;5005775;28;20221;-68
2023/05/07 03:44:57;;;;;;;12.35;11.13;;;;;;;12.48;59.79;95132.50;5004761;28;20233;-68
2023/05/07 03:47:22;;;;;;;11.85;10.85;;;;;;;12.48;60.31;95139.56;5001620;28;20265;-69
2023/05/07 03:49:49;;;;;;;12.15;11.05;;;;;;;12.49;60.37;95144.69;5002049;28;20246;-68
2023/05/07 03:52:15;;;;;;;11.77;10.27;;;;;;;12.53;59.98;95132.81;5015567;28;20183;-68
2023/05/07 03:54:40;;;;;;;11.52;10.52;;;;;;;12.53;60.21;95137.28;5003156;28;20218;-69
2023/05/07 03:57:06;;;;;;;10.43;9.23;;;;;;;12.19;60.14;95129.41;5005268;28;20223;-68
2023/05/07 03:59:31;;;;;;;10.15;9.25;;;;;;;12.37;59.25;95148.59;5024254;28;20214;-69
2023/05/07 04:01:57;;;;;;;10.35;9.30;;;;;;;12.25;59.59;95148.09;5000453;28;20253;-69
2023/05/07 04:04:22;;;;;;;10.35;9.45;;;;;;;12.29;59.41;95154.66;5013074;28;20186;-68
2023/05/07 04:06:47;;;;;;;11.50;9.02;;;;;;;12.23;59.59;95157.13;5015677;28;20237;-68
2023/05/07 04:09:13;;;;;;;10.33;9.17;;;;;;;12.14;59.89;95154.47;5007617;28;20211;-70
2023/05/07 04:11:40;;;;;;;10.30;9.30;;;;;;;12.16;59.90;95162.19;5008281;28;20244;-69
2023/05/07 04:14:06;;;;;;;11.45;10.02;;;;;;;11.88;60.54;95165.03;5014761;28;20233;-68
2023/05/07 04:16:31;;;;;;;10.38;9.25;;;;;;;11.60;61.39;95174.88;5019825;28;20186;-68
2023/05/07 04:18:56;;;;;;;10.40;9.05;;;;;;;11.82;60.94;95172.72;5016817;28;20252;-69
2023/05/07 04:21:22;;;;;;;11.13;9.32;;;;;;;11.53;61.82;95186.19;5021255;28;20226;-68
2023/05/07 04:23:48;;;;;;;10.18;9.18;;;;;;;11.52;61.84;95177.47;5008233;28;20225;-68
2023/05/07 04:26:14;;;;;;;10.30;9.30;;;;;;;11.75;61.22;95182.22;5007699;28;20219;-68
2023/05/07 04:28:40;;;;;;;9.45;8.52;;;;;;;11.81;61.15;95187.66;5008593;28;20213;-68
2023/05/07 04:31:06;;;;;;;10.40;9.50;;;;;;;11.74;61.39;95197.19;5014465;28;20218;-68
2023/05/07 04:33:31;;;;;;;11.05;9.50;;;;;;;11.93;60.86;95198.00;5014322;28;20246;-69
2023/05/07 04:35:58;;;;;;;11.07;9.85;;;;;;;12.03;60.61;95188.16;5014584;28;20217;-68
2023/05/07 04:38:23;;;;;;;10.80;9.43;;;;;;;12.09;60.54;95200.72;5015702;28;20226;-68
2023/05/07 04:40:49;;;;;;;10.65;9.57;;;;;;;12.03;60.82;95196.91;5019665;28;20240;-68
2023/05/07 04:43:15;;;;;;;12.35;9.43;;;;;;;12.19;60.49;95198.81;5008971;28;20194;-68
2023/05/07 04:45:41;;;;;;;10.27;9.10;;;;;;;12.19;60.35;95193.53;5012909;28;20218;-68
2023/05/07 04:48:08;;;;;;;11.20;10.02;;;;;;;12.34;59.94;95191.94;5006912;28;20735;-68
2023/05/07 04:50:34;;;;;;;11.40;9.30;;;;;;;12.36;59.93;95192.63;5005831;28;20284;-68
2023/05/07 04:52:59;;;;;;;10.65;9.63;;;;;;;12.29;60.31;95202.13;5012894;28;20278;-69
2023/05/07 04:55:24;;;;;;;11.05;9.98;;;;;;;12.36;60.46;95194.44;5005055;28;20406;-68
2023/05/07 04:57:50;;;;;;;11.13;10.13;;;;;;;12.43;60.26;95198.09;5014045;28;20179;-68
2023/05/07 05:00:16;;;;;;;13.10;10.57;;;;;;;12.47;60.20;95193.31;5014382;28;20214;-69
2023/05/07 05:02:41;;;;;;;12.27;10.38;;;;;;;12.67;59.75;95204.44;5024573;28;20242;-69
2023/05/07 05:05:07;;;;;;;11.57;10.50;;;;;;;12.71;59.53;95197.84;5018791;28;20248;-68
2023/05/07 05:07:33;;;;;;;11.27;10.07;;;;;;;12.84;59.31;95202.69;5030884;28;20202;-68
2023/05/07 05:09:58;;;;;;;12.00;10.73;;;;;;;12.86;59.26;95195.44;5029370;28;20197;-69
2023/05/07 05:12:24;;;;;;;13.90;9.75;;;;;;;12.93;58.72;95188.50;5035498;28;20224;-68
2023/05/07 05:14:49;;;;;;;11.93;10.80;;;;;;;13.06;58.71;95191.50;5031269;28;20222;-67
2023/05/07 05:17:15;;;;;;;10.65;9.75;;;;;;;13.12;58.44;95190.84;5024711;28;20229;-69
2023/05/07 05:19:40;;;;;;;11.55;10.55;;;;;;;13.15;58.46;95190.53;5033797;28;20213;-69
2023/05/07 05:22:06;;;;;;;11.93;10.70;;;;;;;13.28;58.46;95191.88;5035461;28;20213;-68
2023/05/07 05:24:31;;;;;;;12.10;10.75;;;;;;;13.29;58.55;95186.44;5030828;28;20225;-68
2023/05/07 05:26:57;;;;;;;11.75;10.27;;;;;;;13.34;58.29;95197.34;5031124;28;20229;-68
2023/05/07 05:29:22;;;;;;;16.73;11.18;;;;;;;13.42;58.58;95197.34;5032395;28;20269;-68
2023/05/07 05:31:48;;;;;;;13.93;11.70;;;;;;;13.59;58.51;95202.63;5026145;28;20230;-68
2023/05/07 05:34:13;;;;;;;12.70;10.52;;;;;;;13.57;58.45;95197.50;5038483;28;20185;-68
2023/05/07 05:36:39;;;;;;;12.15;10.95;;;;;;;13.64;58.58;95201.13;5027466;28;20301;-68
2023/05/07 05:39:04;;;;;;;11.95;10.52;;;;;;;13.77;58.65;95207.75;5023260;28;20221;-69
2023/05/07 05:41:30;;;;;;;12.90;11.70;;;;;;;13.74;58.54;95205.41;5032010;28;20224;-68
2023/05/07 05:43:55;;;;;;;11.27;10.20;;;;;;;13.49;59.27;95204.59;5042872;28;20295;-68
2023/05/07 05:46:21;;;;;;;11.93;10.73;;;;;;;13.57;59.04;95205.44;5035396;28;20276;-69
2023/05/07 05:48:47;;;;;;;11.80;10.50;;;;;;;13.71;58.64;95196.00;5021961;28;20222;-69
2023/05/07 05:51:12;;;;;;;12.70;9.85;;;;;;;13.87;58.05;95197.81;5027096;28;20222;-68
2023/05/07 05:53:37;;;;;;;11.60;10.40;;;;;;;13.94;58.11;95193.50;5031527;28;20224;-69
2023/05/07 05:56:03;;;;;;;11.65;10.40;;;;;;;13.97;58.05;95193.16;5032490;28;20317;-68
2023/05/07 05:58:29;;;;;;;10.85;9.73;;;;;;;13.95;57.57;95187.22;5034393;28;20185;-68
2023/05/07 06:00:54;;;;;;;11.05;9.70;;;;;;;13.88;58.28;95192.38;5022413;28;20213;-69
2023/05/07 06:03:20;;;;;;;11.13;10.10;;;;;;;14.06;57.47;95200.09;5028662;28;20238;-69
2023/05/07 06:05:45;;;;;;;10.57;9.55;;;;;;;14.13;57.30;95200.25;5026671;28;20222;-69
2023/05/07 06:08:11;;;;;;;10.63;9.48;;;;;;;14.18;56.93;95205.84;5030630;28;20232;-69
2023/05/07 06:10:37;;;;;;;10.95;9.85;;;;;;;13.94;57.44;95201.44;5027019;28;20225;-69
2023/05/07 06:13:03;;;;;;;11.10;9.95;;;;;;;14.12;57.09;95198.59;5026221;28;20182;-69
2023/05/07 06:15:28;;;;;;;12.02;9.65;;;;;;;14.28;56.75;95206.50;5037055;28;20233;-69
2023/05/07 06:17:55;;;;;;;10.43;9.15;;;;;;;14.36;56.36;95195.06;5026546;28;20229;-69
2023/05/07 06:20:21;;;;;;;10.68;9.20;;;;;;;14.41;56.21;95184.78;5028954;28;20214;-69
2023/05/07 06:22:46;;;;;;;9.68;8.85;;;;;;;14.55;55.94;95191.22;5029763;28;20241;-68
2023/05/07 06:25:12;;;;;;;10.00;9.00;;;;;;;14.61;55.68;95192.34;5029119;28;20201;-69
2023/05/07 06:27:39;;;;;;;9.30;8.43;;;;;;;14.64;54.73;95192.00;5030588;28;20287;-69
2023/05/07 06:30:05;;;;;;;8.82;8.13;;;;;;;14.50;55.34;95190.88;5026952;28;20221;-69
2023/05/07 06:32:31;;;;;;;10.20;9.15;;;;;;;14.56;55.11;95187.56;5029952;28;20217;-69
2023/05/07 06:34:56;;;;;;;10.05;8.60;;;;;;;14.69;54.39;95184.38;5040325;28;20632;-68
2023/05/07 06:37:21;;;;;;;9.43;8.52;;;;;;;14.66;54.57;95180.25;5026513;28;20232;-68
2023/05/07 06:39:47;;;;;;;9.40;8.50;;;;;;;14.76;54.32;95177.38;5021252;28;20217;-69
2023/05/07 06:42:12;;;;;;;9.35;8.45;;;;;;;14.73;54.65;95175.09;5037668;28;20224;-69
2023/05/07 06:44:38;;;;;;;10.80;8.15;;;;;;;14.77;54.74;95171.91;5035236;28;20236;-68
2023/05/07 06:47:03;;;;;;;8.98;8.13;;;;;;;14.87;54.56;95179.63;5027045;28;20563;-69
2023/05/07 06:49:29;;;;;;;10.25;8.85;;;;;;;15.02;53.79;95173.59;5024024;28;20255;-69
2023/05/07 06:51:55;;;;;;;9.23;8.30;;;;;;;14.98;53.80;95168.66;5025081;28;20204;-69
2023/05/07 06:54:20;;;;;;;10.52;8.38;;;;;;;15.00;53.90;95160.53;5021321;28;20236;-70
2023/05/07 06:56:46;;;;;;;9.95;8.90;;;;;;;15.04;53.57;95167.13;5025034;28;20209;-69
2023/05/07 06:59:11;;;;;;;9.35;8.25;;;;;;;15.09;53.35;95154.19;5022871;28;20296;-70
2023/05/07 07:01:37;;;;;;;9.52;8.70;;;;;;;15.17;53.43;95163.91;5027813;28;20194;-70
2023/05/07 07:04:02;;;;;;;10.00;9.00;;;;;;;15.20;53.66;95156.41;5023724;28;20269;-69
2023/05/07 07:06:28;;;;;;;8.98;8.10;;;;;;;15.24;53.75;95164.03;5023731;28;20221;-70
2023/05/07 07:08:53;;;;;;;9.88;8.63;;;;;;;15.30;52.90;95166.78;5025023;28;20213;-70
2023/05/07 07:11:19;;;;;;;10.98;8.75;;;;;;;15.33;52.72;95157.66;5025563;28;20229;-71
2023/05/07 07:13:45;;;;;;;10.85;8.35;;;;;;;15.41;52.76;95163.69;5026551;28;20228;-69
2023/05/07 07:16:10;;;;;;;9.60;8.15;;;;;;;15.50;52.78;95158.34;5024413;28;20193;-69
2023/05/07 07:18:36;;;;;;;9.02;8.13;;;;;;;15.70;52.77;95153.41;5038871;28;20296;-70
2023/05/07 07:21:01;;;;;;;14.85;9.50;;;;;;;15.91;52.39;95153.53;5023550;28;20213;-69
2023/05/07 07:23:26;;;;;;;11.00;9.48;;;;;;;15.48;53.69;95155.88;5026660;28;20225;-68
2023/05/07 07:25:52;;;;;;;11.23;10.13;;;;;;;15.54;53.73;95149.84;5038301;28;20289;-68
2023/05/07 07:28:17;;;;;;;10.73;9.73;;;;;;;15.53;53.73;95161.47;5026061;28;20210;-68
2023/05/07 07:30:43;;;;;;;10.38;9.40;;;;;;;15.65;53.17;95160.03;5034217;28;20220;-68
2023/05/07 07:33:08;;;;;;;10.52;9.27;;;;;;;15.70;53.15;95150.75;5022660;28;20221;-68
2023/05/07 07:35:34;;;;;;;10.73;9.38;;;;;;;16.10;52.55;95152.16;5025231;28;20214;-69
2023/05/07 07:37:59;;;;;;;10.95;9.85;;;;;;;15.86;52.85;95154.06;5029977;28;20213;-68
2023/05/07 07:40:25;;;;;;;11.32;10.23;;;;;;;15.98;52.54;95153.63;5030421;28;20203;-69
2023/05/07 07:42:53;;;;;;;15.45;9.48;;;;;;;15.82;52.85;95155.44;5025250;28;20201;-69
2023/05/07 07:45:18;;;;;;;11.93;9.35;;;;;;;16.06;52.49;95154.38;5030960;28;20264;-68
2023/05/07 07:47:44;;;;;;;10.82;9.73;;;;;;;15.97;53.61;95160.75;5036243;28;20628;-66
2023/05/07 07:50:10;;;;;;;47.72;12.60;;;;;;;16.01;54.16;95155.91;5024649;28;20213;-69
2023/05/07 07:52:36;;;;;;;11.88;9.32;;;;;;;15.99;53.62;95164.06;5031509;28;20581;-68
2023/05/07 07:55:02;;;;;;;10.10;9.20;;;;;;;16.14;53.69;95163.22;5031991;28;20188;-69
2023/05/07 07:57:27;;;;;;;10.80;9.90;;;;;;;16.20;52.94;95167.78;5029111;28;20220;-68
2023/05/07 07:59:53;;;;;;;12.07;10.88;;;;;;;16.32;52.97;95164.50;5033515;28;20217;-66
2023/05/07 08:02:18;;;;;;;10.80;9.80;;;;;;;16.40;52.35;95162.78;5029145;28;20756;-69
2023/05/07 08:04:44;;;;;;;11.30;10.20;;;;;;;16.49;52.39;95159.84;5026883;28;20299;-67
2023/05/07 08:07:10;;;;;;;11.43;10.38;;;;;;;16.87;52.12;95165.03;5044476;28;20213;-66
2023/05/07 08:09:37;;;;;;;11.75;10.55;;;;;;;17.07;51.23;95153.78;5025971;28;20226;-67
2023/05/07 08:12:03;;;;;;;10.43;9.45;;;;;;;16.82;51.10;95153.31;5020383;28;20222;-67
2023/05/07 08:14:29;;;;;;;13.80;10.45;;;;;;;16.68;50.60;95152.28;5040109;28;20228;-67
2023/05/07 08:16:55;;;;;;;12.43;9.77;;;;;;;16.72;50.64;95159.72;5032718;28;20229;-67
2023/05/07 08:19:21;;;;;;;11.23;9.82;;;;;;;16.73;51.68;95150.75;5029998;28;20273;-67
2023/05/07 08:21:47;;;;;;;10.52;9.57;;;;;;;16.90;50.95;95146.06;5026216;28;20221;-67
2023/05/07 08:24:17;;;;;;;11.60;10.60;;;;;;;17.09;49.40;95155.25;5031949;28;20224;-67
2023/05/07 08:26:43;;;;;;;11.60;9.02;;;;;;;17.07;49.47;95153.78;5044640;28;20214;-67
2023/05/07 08:29:09;;;;;;;9.77;8.75;;;;;;;17.22;48.97;95151.09;5032243;28;20217;-67
2023/05/07 08:31:34;;;;;;;9.35;8.30;;;;;;;17.32;48.79;95154.22;5036657;28;20191;-67
2023/05/07 08:34:00;;;;;;;9.70;8.73;;;;;;;17.58;48.57;95149.16;5033196;28;20186;-67
2023/05/07 08:36:26;;;;;;;12.90;8.57;;;;;;;17.55;47.52;95144.22;5035153;28;20223;-66
2023/05/07 08:38:52;;;;;;;8.90;8.02;;;;;;;17.60;47.81;95139.16;5032035;28;20233;-67
2023/05/07 08:41:18;;;;;;;8.98;8.18;;;;;;;17.56;48.33;95140.56;5027353;28;20354;-67
2023/05/07 08:43:48;;;;;;;11.05;8.93;;;;;;;17.64;48.24;95144.91;5027746;28;20489;-68
2023/05/07 08:46:17;;;;;;;9.13;8.07;;;;;;;17.60;47.26;95139.16;5032466;28;20189;-68
2023/05/07 08:48:44;;;;;;;12.75;8.73;;;;;;;17.67;47.55;95139.22;5039962;28;20273;-68
2023/05/07 08:51:13;;;;;;;10.35;8.68;;;;;;;17.73;47.70;95135.78;5031883;28;20231;-67
2023/05/07 08:53:41;;;;;;;8.80;7.90;;;;;;;17.76;45.81;95129.25;5028964;28;20224;-68
2023/05/07 08:56:08;;;;;;;8.65;7.80;;;;;;;17.94;45.71;95128.81;5028734;28;20221;-68
2023/05/07 08:58:34;;;;;;;8.25;7.45;;;;;;;17.93;45.99;95127.97;5021070;28;20181;-68
2023/05/07 09:01:05;;;;;;;11.10;6.85;;;;;;;17.96;45.78;95118.78;5032280;28;20197;-67
2023/05/07 09:03:31;;;;;;;11.07;7.07;;;;;;;17.97;45.92;95118.59;5013672;28;20275;-68
2023/05/07 09:05:56;;;;;;;8.70;7.20;;;;;;;18.19;45.20;95115.84;5034181;28;20245;-67
2023/05/07 09:08:25;;;;;;;8.82;7.22;;;;;;;18.27;44.95;95115.69;5035471;28;20233;-67
2023/05/07 09:10:52;;;;;;;7.82;6.43;;;;;;;18.33;44.49;95114.09;5032042;28;20259;-67
2023/05/07 09:13:18;;;;;;;6.93;6.28;;;;;;;18.39;43.84;95118.59;5032225;28;20206;-68
2023/05/07 09:15:43;;;;;;;7.53;6.82;;;;;;;18.46;43.13;95112.31;5027217;28;20245;-68
2023/05/07 09:18:09;;;;;;;8.82;6.75;;;;;;;18.60;43.03;95104.38;5033196;28;20210;-69
2023/05/07 09:20:36;;;;;;;8.25;6.57;;;;;;;18.69;43.43;95101.34;5042128;28;20217;-68
2023/05/07 09:23:02;;;;;;;8.15;6.18;;;;;;;18.87;43.43;95097.31;5020010;28;20248;-67
2023/05/07 09:25:32;;;;;;;7.78;6.38;;;;;;;19.01;43.03;95092.84;5041294;28;20210;-68
2023/05/07 09:27:58;;;;;;;6.93;6.25;;;;;;;19.18;42.41;95105.56;5028603;28;20237;-68
2023/05/07 09:30:30;;;;;;;6.57;5.97;;;;;;;19.24;41.70;95093.28;5031455;28;20225;-68
2023/05/07 09:32:57;;;;;;;7.57;5.63;;;;;;;19.33;40.67;95096.59;5040678;28;20226;-68
2023/05/07 09:35:27;;;;;;;6.95;6.00;;;;;;;19.39;40.26;95096.56;5027952;28;20214;-68
2023/05/07 09:37:56;;;;;;;6.60;5.60;;;;;;;19.59;38.77;95087.75;5031210;28;20225;-68
2023/05/07 09:40:24;;;;;;;6.00;5.50;;;;;;;19.54;38.75;95092.88;5030598;28;20253;-68
2023/05/07 09:42:50;;;;;;;6.03;5.43;;;;;;;19.73;37.90;95093.97;5031612;28;20252;-68
2023/05/07 09:45:21;;;;;;;7.15;5.88;;;;;;;19.72;37.50;95081.63;5028719;28;20228;-67
2023/05/07 09:47:49;;;;;;;5.82;5.22;;;;;;;19.91;37.85;95085.28;5027304;28;20299;-67
2023/05/07 09:50:16;;;;;;;5.75;5.25;;;;;;;19.92;37.98;95079.75;5028687;28;20275;-69
2023/05/07 09:52:44;;;;;;;5.93;5.32;;;;;;;20.15;39.27;95075.78;5034985;28;20276;-67
2023/05/07 09:55:10;;;;;;;5.97;5.38;;;;;;;20.23;38.05;95075.56;5024994;28;20205;-68
2023/05/07 09:57:36;;;;;;;5.28;4.78;;;;;;;20.16;37.67;95069.44;5026784;28;20217;-68
2023/05/07 10:00:04;;;;;;;6.03;5.05;;;;;;;20.20;38.39;95071.47;5029297;28;20306;-68
2023/05/07 10:02:32;;;;;;;5.60;4.97;;;;;;;20.43;37.11;95076.31;5033712;28;20238;-69
2023/05/07 10:05:00;;;;;;;5.80;5.20;;;;;;;20.50;36.65;95081.63;5038339;28;20229;-69
2023/05/07 10:07:26;;;;;;;5.40;4.82;;;;;;;20.18;36.89;95073.53;5030434;28;20242;-68
2023/05/07 10:09:52;;;;;;;4.90;4.40;;;;;;;20.26;37.31;95070.66;5039568;28;20227;-70
2023/05/07 10:12:18;;;;;;;5.05;4.60;;;;;;;20.28;37.08;95070.41;5021704;28;20222;-69
2023/05/07 10:14:45;;;;;;;5.35;3.70;;;;;;;20.42;36.43;95066.69;5044102;28;20647;-70
2023/05/07 10:17:11;;;;;;;5.45;4.47;;;;;;;20.44;35.96;95069.94;5012788;28;20229;-69
2023/05/07 10:19:37;;;;;;;4.50;4.10;;;;;;;20.46;34.76;95069.75;5028294;28;20193;-70
2023/05/07 10:22:06;;;;;;;4.40;4.00;;;;;;;20.58;36.03;95062.75;5030204;28;20189;-70
2023/05/07 10:24:36;;;;;;;4.45;4.05;;;;;;;20.59;34.85;95058.22;5034319;28;20217;-70
2023/05/07 10:27:07;;;;;;;4.60;3.78;;;;;;;20.51;33.35;95059.25;5026871;28;20237;-69
2023/05/07 10:29:56;;;;;;;4.43;4.03;;;;;;;20.64;33.89;95061.06;5019672;28;20238;-69
2023/05/07 10:32:40;;;;;;;4.35;3.95;;;;;;;20.97;32.34;95049.38;5032634;28;20221;-69
2023/05/07 10:35:13;;;;;;;4.22;3.17;;;;;;;21.00;33.06;95044.41;5035884;28;20214;-69
2023/05/07 10:37:40;;;;;;;5.03;4.00;;;;;;;21.17;32.51;95044.72;5021168;28;20301;-69
2023/05/07 10:40:06;;;;;;;7.45;4.15;;;;;;;21.39;33.98;95041.69;5029882;28;20182;-69
2023/05/07 10:42:32;;;;;;;4.32;3.88;;;;;;;21.80;33.10;95041.13;5027606;28;20249;-69
2023/05/07 10:45:10;;;;;;;6.50;4.38;;;;;;;21.79;30.80;95042.97;5027098;28;20256;-69
2023/05/07 10:48:05;;;;;;;4.68;4.35;;;;;;;21.83;30.87;95037.19;5027380;28;20321;-69
2023/05/07 10:50:31;;;;;;;4.22;3.80;;;;;;;21.85;32.01;95040.47;5038217;28;20233;-69
2023/05/07 10:53:15;;;;;;;5.20;3.85;;;;;;;21.87;31.33;95044.56;5029535;28;20230;-69
2023/05/07 10:55:40;;;;;;;4.15;3.72;;;;;;;21.86;31.40;95034.88;5039096;28;20201;-68
2023/05/07 10:58:21;;;;;;;5.13;3.63;;;;;;;21.86;30.79;95037.53;5026897;28;20182;-69
2023/05/07 11:00:47;;;;;;;5.10;3.83;;;;;;;21.88;30.46;95034.66;5023010;28;20225;-69
2023/05/07 11:03:14;;;;;;;5.82;4.07;;;;;;;21.85;31.80;95027.06;5032213;28;20289;-69
2023/05/07 11:05:41;;;;;;;4.90;3.67;;;;;;;21.95;30.57;95030.88;5025126;28;20260;-69
2023/05/07 11:08:06;;;;;;;6.22;3.80;;;;;;;22.25;29.85;95027.47;5024914;28;20225;-69
2023/05/07 11:10:54;;;;;;;6.93;4.63;;;;;;;22.31;30.29;95028.44;5031681;28;20249;-69
2023/05/07 11:13:42;;;;;;;4.15;3.70;;;;;;;21.99;29.97;95032.06;5031248;28;20202;-68
2023/05/07 11:16:26;;;;;;;4.65;3.78;;;;;;;21.69;30.73;95025.78;5027836;28;20214;-68
2023/05/07 11:18:54;;;;;;;5.25;4.82;;;;;;;21.90;30.71;95022.69;5024030;28;20217;-69
2023/05/07 11:21:33;;;;;;;5.88;4.60;;;;;;;22.15;30.71;95022.59;5029302;28;20213;-69
2023/05/07 11:24:00;;;;;;;5.85;4.07;;;;;;;22.15;30.16;95019.94;5018919;28;20221;-69